sensor_id;sensor_type;location;lat;lon;timestamp;P1;durP1;ratioP1;P2;durP2;ratioP2
18142;SDS011;9197;50.930;3.140;2022-12-28T00:02:13;7.60;;;5.70;;
18142;SDS011;9197;50.930;3.140;2022-12-28T00:04:40;8.43;;;5.83;;
18142;SDS011;9197;50.930;3.140;2022-12-28T00:07:07;9.50;;;5.50;;
18142;SDS011;9197;50.930;3.140;2022-12-28T00:09:34;9.60;;;6.20;;
18142;SDS011;9197;50.930;3.140;2022-12-28T00:12:03;9.20;;;5.73;;
18142;SDS011;9197;50.930;3.140;2022-12-28T00:14:30;9.97;;;6.43;;
18142;SDS011;9197;50.930;3.140;2022-12-28T00:16:58;6.03;;;5.43;;
18142;SDS011;9197;50.930;3.140;2022-12-28T00:19:25;6.43;;;5.83;;
18142;SDS011;9197;50.930;3.140;2022-12-28T00:21:52;10.57;;;6.37;;
18142;SDS011;9197;50.930;3.140;2022-12-28T00:24:20;8.23;;;5.90;;
18142;SDS011;9197;50.930;3.140;2022-12-28T00:26:47;9.03;;;5.67;;
18142;SDS011;9197;50.930;3.140;2022-12-28T00:29:16;6.37;;;5.60;;
18142;SDS011;9197;50.930;3.140;2022-12-28T00:31:44;9.97;;;5.53;;
18142;SDS011;9197;50.930;3.140;2022-12-28T00:34:11;7.80;;;6.63;;
18142;SDS011;9197;50.930;3.140;2022-12-28T00:36:38;6.47;;;5.57;;
18142;SDS011;9197;50.930;3.140;2022-12-28T00:39:05;5.97;;;5.37;;
18142;SDS011;9197;50.930;3.140;2022-12-28T00:41:32;6.67;;;6.03;;
18142;SDS011;9197;50.930;3.140;2022-12-28T00:43:59;7.90;;;5.30;;
18142;SDS011;9197;50.930;3.140;2022-12-28T00:46:28;8.20;;;5.70;;
18142;SDS011;9197;50.930;3.140;2022-12-28T00:48:55;6.90;;;5.33;;
18142;SDS011;9197;50.930;3.140;2022-12-28T00:51:22;7.07;;;6.47;;
18142;SDS011;9197;50.930;3.140;2022-12-28T00:53:49;5.83;;;5.20;;
18142;SDS011;9197;50.930;3.140;2022-12-28T00:56:17;8.37;;;6.53;;
18142;SDS011;9197;50.930;3.140;2022-12-28T00:58:47;7.17;;;6.00;;
18142;SDS011;9197;50.930;3.140;2022-12-28T01:01:16;11.77;;;6.37;;
18142;SDS011;9197;50.930;3.140;2022-12-28T01:03:44;6.90;;;5.70;;
18142;SDS011;9197;50.930;3.140;2022-12-28T01:06:14;6.77;;;5.80;;
18142;SDS011;9197;50.930;3.140;2022-12-28T01:08:44;8.73;;;5.53;;
18142;SDS011;9197;50.930;3.140;2022-12-28T01:11:12;8.27;;;6.50;;
18142;SDS011;9197;50.930;3.140;2022-12-28T01:13:41;8.17;;;6.33;;
18142;SDS011;9197;50.930;3.140;2022-12-28T01:16:09;7.67;;;5.93;;
18142;SDS011;9197;50.930;3.140;2022-12-28T01:18:36;6.03;;;5.23;;
18142;SDS011;9197;50.930;3.140;2022-12-28T01:21:08;6.20;;;5.10;;
18142;SDS011;9197;50.930;3.140;2022-12-28T01:23:36;6.83;;;5.40;;
18142;SDS011;9197;50.930;3.140;2022-12-28T01:26:03;10.50;;;5.73;;
18142;SDS011;9197;50.930;3.140;2022-12-28T01:28:30;7.20;;;5.97;;
18142;SDS011;9197;50.930;3.140;2022-12-28T01:31:01;6.50;;;4.87;;
18142;SDS011;9197;50.930;3.140;2022-12-28T01:33:28;5.83;;;4.90;;
18142;SDS011;9197;50.930;3.140;2022-12-28T01:35:55;7.13;;;4.70;;
18142;SDS011;9197;50.930;3.140;2022-12-28T01:38:24;7.23;;;5.77;;
18142;SDS011;9197;50.930;3.140;2022-12-28T01:40:51;6.97;;;5.23;;
18142;SDS011;9197;50.930;3.140;2022-12-28T01:43:18;5.40;;;4.80;;
18142;SDS011;9197;50.930;3.140;2022-12-28T01:45:47;6.07;;;4.13;;
18142;SDS011;9197;50.930;3.140;2022-12-28T01:48:17;6.37;;;4.77;;
18142;SDS011;9197;50.930;3.140;2022-12-28T01:50:46;8.80;;;5.10;;
18142;SDS011;9197;50.930;3.140;2022-12-28T01:53:15;7.27;;;5.30;;
18142;SDS011;9197;50.930;3.140;2022-12-28T01:55:45;5.17;;;4.67;;
18142;SDS011;9197;50.930;3.140;2022-12-28T01:58:13;4.97;;;4.43;;
18142;SDS011;9197;50.930;3.140;2022-12-28T02:00:42;5.50;;;4.70;;
18142;SDS011;9197;50.930;3.140;2022-12-28T02:03:10;6.20;;;5.60;;
18142;SDS011;9197;50.930;3.140;2022-12-28T02:05:39;5.70;;;4.53;;
18142;SDS011;9197;50.930;3.140;2022-12-28T02:08:07;5.87;;;4.73;;
18142;SDS011;9197;50.930;3.140;2022-12-28T02:10:36;7.53;;;4.57;;
18142;SDS011;9197;50.930;3.140;2022-12-28T02:13:07;6.47;;;4.10;;
18142;SDS011;9197;50.930;3.140;2022-12-28T02:15:34;8.00;;;4.90;;
18142;SDS011;9197;50.930;3.140;2022-12-28T02:18:01;7.03;;;4.53;;
18142;SDS011;9197;50.930;3.140;2022-12-28T02:20:31;7.33;;;5.17;;
18142;SDS011;9197;50.930;3.140;2022-12-28T02:23:19;7.13;;;5.20;;
18142;SDS011;9197;50.930;3.140;2022-12-28T02:25:57;4.70;;;4.13;;
18142;SDS011;9197;50.930;3.140;2022-12-28T02:31:21;7.73;;;5.47;;
18142;SDS011;9197;50.930;3.140;2022-12-28T02:33:52;9.83;;;4.83;;
18142;SDS011;9197;50.930;3.140;2022-12-28T02:36:21;7.30;;;4.50;;
18142;SDS011;9197;50.930;3.140;2022-12-28T02:38:51;5.53;;;4.30;;
18142;SDS011;9197;50.930;3.140;2022-12-28T02:41:20;5.43;;;4.90;;
18142;SDS011;9197;50.930;3.140;2022-12-28T02:43:48;6.60;;;4.53;;
18142;SDS011;9197;50.930;3.140;2022-12-28T02:46:16;6.10;;;4.67;;
18142;SDS011;9197;50.930;3.140;2022-12-28T02:49:13;6.57;;;4.70;;
18142;SDS011;9197;50.930;3.140;2022-12-28T02:52:01;9.33;;;4.73;;
18142;SDS011;9197;50.930;3.140;2022-12-28T02:54:43;8.53;;;4.83;;
18142;SDS011;9197;50.930;3.140;2022-12-28T02:57:38;5.97;;;4.43;;
18142;SDS011;9197;50.930;3.140;2022-12-28T03:00:09;8.17;;;4.37;;
18142;SDS011;9197;50.930;3.140;2022-12-28T03:02:42;6.17;;;3.90;;
18142;SDS011;9197;50.930;3.140;2022-12-28T03:05:14;7.00;;;4.93;;
18142;SDS011;9197;50.930;3.140;2022-12-28T03:08:06;7.43;;;4.43;;
18142;SDS011;9197;50.930;3.140;2022-12-28T03:10:44;5.73;;;4.37;;
18142;SDS011;9197;50.930;3.140;2022-12-28T03:13:13;6.70;;;3.60;;
18142;SDS011;9197;50.930;3.140;2022-12-28T03:15:56;10.03;;;4.53;;
18142;SDS011;9197;50.930;3.140;2022-12-28T03:18:24;7.37;;;3.80;;
18142;SDS011;9197;50.930;3.140;2022-12-28T03:21:12;5.17;;;4.17;;
18142;SDS011;9197;50.930;3.140;2022-12-28T03:23:58;7.60;;;3.37;;
18142;SDS011;9197;50.930;3.140;2022-12-28T03:26:45;6.33;;;3.83;;
18142;SDS011;9197;50.930;3.140;2022-12-28T03:29:31;4.63;;;4.00;;
18142;SDS011;9197;50.930;3.140;2022-12-28T03:32:17;6.00;;;3.63;;
18142;SDS011;9197;50.930;3.140;2022-12-28T03:34:45;4.60;;;3.50;;
18142;SDS011;9197;50.930;3.140;2022-12-28T03:37:15;5.77;;;3.67;;
18142;SDS011;9197;50.930;3.140;2022-12-28T03:39:44;4.67;;;3.20;;
18142;SDS011;9197;50.930;3.140;2022-12-28T03:42:14;4.93;;;3.27;;
18142;SDS011;9197;50.930;3.140;2022-12-28T03:45:01;4.63;;;3.00;;
18142;SDS011;9197;50.930;3.140;2022-12-28T03:47:31;4.70;;;3.10;;
18142;SDS011;9197;50.930;3.140;2022-12-28T03:49:59;3.87;;;3.37;;
18142;SDS011;9197;50.930;3.140;2022-12-28T03:52:28;6.33;;;3.47;;
18142;SDS011;9197;50.930;3.140;2022-12-28T03:54:56;8.13;;;3.13;;
18142;SDS011;9197;50.930;3.140;2022-12-28T03:57:26;7.53;;;4.13;;
18142;SDS011;9197;50.930;3.140;2022-12-28T03:59:53;5.47;;;2.77;;
18142;SDS011;9197;50.930;3.140;2022-12-28T04:02:24;7.33;;;3.00;;
18142;SDS011;9197;50.930;3.140;2022-12-28T04:04:51;3.27;;;2.93;;
18142;SDS011;9197;50.930;3.140;2022-12-28T04:07:19;3.23;;;2.33;;
18142;SDS011;9197;50.930;3.140;2022-12-28T04:09:47;5.37;;;2.80;;
18142;SDS011;9197;50.930;3.140;2022-12-28T04:12:14;4.93;;;2.80;;
18142;SDS011;9197;50.930;3.140;2022-12-28T04:14:45;4.37;;;2.33;;
18142;SDS011;9197;50.930;3.140;2022-12-28T04:17:12;6.00;;;2.37;;
18142;SDS011;9197;50.930;3.140;2022-12-28T04:19:39;3.13;;;2.43;;
18142;SDS011;9197;50.930;3.140;2022-12-28T04:22:08;2.47;;;2.27;;
18142;SDS011;9197;50.930;3.140;2022-12-28T04:24:36;5.37;;;2.60;;
18142;SDS011;9197;50.930;3.140;2022-12-28T04:27:04;7.50;;;2.50;;
18142;SDS011;9197;50.930;3.140;2022-12-28T04:29:32;3.10;;;2.43;;
18142;SDS011;9197;50.930;3.140;2022-12-28T04:31:59;3.07;;;2.53;;
18142;SDS011;9197;50.930;3.140;2022-12-28T04:34:26;4.17;;;2.20;;
18142;SDS011;9197;50.930;3.140;2022-12-28T04:36:53;3.43;;;2.70;;
18142;SDS011;9197;50.930;3.140;2022-12-28T04:39:21;4.80;;;2.00;;
18142;SDS011;9197;50.930;3.140;2022-12-28T04:41:48;3.47;;;2.37;;
18142;SDS011;9197;50.930;3.140;2022-12-28T04:44:17;8.83;;;2.43;;
18142;SDS011;9197;50.930;3.140;2022-12-28T04:46:44;6.03;;;2.30;;
18142;SDS011;9197;50.930;3.140;2022-12-28T04:49:11;2.97;;;2.40;;
18142;SDS011;9197;50.930;3.140;2022-12-28T04:51:38;4.23;;;3.50;;
18142;SDS011;9197;50.930;3.140;2022-12-28T04:54:05;3.93;;;2.50;;
18142;SDS011;9197;50.930;3.140;2022-12-28T04:56:33;4.70;;;2.60;;
18142;SDS011;9197;50.930;3.140;2022-12-28T04:59:01;2.37;;;2.17;;
18142;SDS011;9197;50.930;3.140;2022-12-28T05:01:29;3.73;;;2.43;;
18142;SDS011;9197;50.930;3.140;2022-12-28T05:03:56;4.17;;;2.10;;
18142;SDS011;9197;50.930;3.140;2022-12-28T05:06:24;3.70;;;2.37;;
18142;SDS011;9197;50.930;3.140;2022-12-28T05:08:52;3.43;;;2.37;;
18142;SDS011;9197;50.930;3.140;2022-12-28T05:11:20;3.20;;;2.60;;
18142;SDS011;9197;50.930;3.140;2022-12-28T05:13:47;3.10;;;2.20;;
18142;SDS011;9197;50.930;3.140;2022-12-28T05:16:15;7.40;;;2.40;;
18142;SDS011;9197;50.930;3.140;2022-12-28T05:18:44;4.63;;;2.40;;
18142;SDS011;9197;50.930;3.140;2022-12-28T05:21:11;3.40;;;2.50;;
18142;SDS011;9197;50.930;3.140;2022-12-28T05:23:39;3.80;;;2.53;;
18142;SDS011;9197;50.930;3.140;2022-12-28T05:26:07;5.90;;;2.53;;
18142;SDS011;9197;50.930;3.140;2022-12-28T05:28:35;5.67;;;2.70;;
18142;SDS011;9197;50.930;3.140;2022-12-28T05:31:03;4.60;;;2.60;;
18142;SDS011;9197;50.930;3.140;2022-12-28T05:33:31;4.30;;;2.23;;
18142;SDS011;9197;50.930;3.140;2022-12-28T05:36:02;3.10;;;2.50;;
18142;SDS011;9197;50.930;3.140;2022-12-28T05:38:29;3.47;;;2.20;;
18142;SDS011;9197;50.930;3.140;2022-12-28T05:41:02;3.97;;;2.23;;
18142;SDS011;9197;50.930;3.140;2022-12-28T05:43:29;4.70;;;2.20;;
18142;SDS011;9197;50.930;3.140;2022-12-28T05:45:59;3.40;;;2.70;;
18142;SDS011;9197;50.930;3.140;2022-12-28T05:48:28;4.03;;;2.40;;
18142;SDS011;9197;50.930;3.140;2022-12-28T05:50:57;6.13;;;2.43;;
18142;SDS011;9197;50.930;3.140;2022-12-28T05:53:26;4.00;;;2.10;;
18142;SDS011;9197;50.930;3.140;2022-12-28T05:55:58;3.27;;;2.00;;
18142;SDS011;9197;50.930;3.140;2022-12-28T05:58:25;3.93;;;2.80;;
18142;SDS011;9197;50.930;3.140;2022-12-28T06:00:52;2.70;;;1.97;;
18142;SDS011;9197;50.930;3.140;2022-12-28T06:03:19;5.67;;;2.53;;
18142;SDS011;9197;50.930;3.140;2022-12-28T06:05:47;5.77;;;2.17;;
18142;SDS011;9197;50.930;3.140;2022-12-28T06:08:14;2.80;;;2.00;;
18142;SDS011;9197;50.930;3.140;2022-12-28T06:10:43;2.50;;;1.77;;
18142;SDS011;9197;50.930;3.140;2022-12-28T06:13:10;4.93;;;2.30;;
18142;SDS011;9197;50.930;3.140;2022-12-28T06:15:37;2.30;;;2.10;;
18142;SDS011;9197;50.930;3.140;2022-12-28T06:18:04;3.97;;;1.87;;
18142;SDS011;9197;50.930;3.140;2022-12-28T06:20:31;7.73;;;2.17;;
18142;SDS011;9197;50.930;3.140;2022-12-28T06:22:58;7.47;;;2.40;;
18142;SDS011;9197;50.930;3.140;2022-12-28T06:25:26;4.87;;;1.77;;
18142;SDS011;9197;50.930;3.140;2022-12-28T06:27:54;6.53;;;2.17;;
18142;SDS011;9197;50.930;3.140;2022-12-28T06:30:21;5.00;;;2.23;;
18142;SDS011;9197;50.930;3.140;2022-12-28T06:32:48;5.50;;;2.00;;
18142;SDS011;9197;50.930;3.140;2022-12-28T06:35:15;4.43;;;2.33;;
18142;SDS011;9197;50.930;3.140;2022-12-28T06:37:43;4.83;;;2.47;;
18142;SDS011;9197;50.930;3.140;2022-12-28T06:40:10;6.67;;;2.23;;
18142;SDS011;9197;50.930;3.140;2022-12-28T06:42:37;5.47;;;2.00;;
18142;SDS011;9197;50.930;3.140;2022-12-28T06:45:07;3.93;;;2.07;;
18142;SDS011;9197;50.930;3.140;2022-12-28T06:47:34;5.73;;;2.73;;
18142;SDS011;9197;50.930;3.140;2022-12-28T06:50:01;5.27;;;2.20;;
18142;SDS011;9197;50.930;3.140;2022-12-28T06:52:29;8.67;;;2.70;;
18142;SDS011;9197;50.930;3.140;2022-12-28T06:54:56;5.60;;;2.03;;
18142;SDS011;9197;50.930;3.140;2022-12-28T06:57:23;6.37;;;3.13;;
18142;SDS011;9197;50.930;3.140;2022-12-28T06:59:50;7.60;;;2.10;;
18142;SDS011;9197;50.930;3.140;2022-12-28T07:02:19;8.63;;;2.97;;
18142;SDS011;9197;50.930;3.140;2022-12-28T07:04:46;4.53;;;1.80;;
18142;SDS011;9197;50.930;3.140;2022-12-28T07:07:13;7.33;;;2.20;;
18142;SDS011;9197;50.930;3.140;2022-12-28T07:09:40;9.00;;;2.40;;
18142;SDS011;9197;50.930;3.140;2022-12-28T07:12:07;6.53;;;2.33;;
18142;SDS011;9197;50.930;3.140;2022-12-28T07:14:34;7.73;;;2.27;;
18142;SDS011;9197;50.930;3.140;2022-12-28T07:17:02;6.63;;;1.63;;
18142;SDS011;9197;50.930;3.140;2022-12-28T07:19:30;4.27;;;2.03;;
18142;SDS011;9197;50.930;3.140;2022-12-28T07:21:57;5.50;;;1.80;;
18142;SDS011;9197;50.930;3.140;2022-12-28T07:24:24;5.40;;;1.93;;
18142;SDS011;9197;50.930;3.140;2022-12-28T07:26:52;5.87;;;2.50;;
18142;SDS011;9197;50.930;3.140;2022-12-28T07:29:19;4.07;;;2.13;;
18142;SDS011;9197;50.930;3.140;2022-12-28T07:31:46;5.53;;;2.00;;
18142;SDS011;9197;50.930;3.140;2022-12-28T07:34:13;8.80;;;2.20;;
18142;SDS011;9197;50.930;3.140;2022-12-28T07:36:42;5.20;;;2.20;;
18142;SDS011;9197;50.930;3.140;2022-12-28T07:39:09;5.53;;;1.90;;
18142;SDS011;9197;50.930;3.140;2022-12-28T07:41:36;5.20;;;2.00;;
18142;SDS011;9197;50.930;3.140;2022-12-28T07:44:03;4.60;;;2.50;;
18142;SDS011;9197;50.930;3.140;2022-12-28T07:46:32;7.70;;;2.17;;
18142;SDS011;9197;50.930;3.140;2022-12-28T07:48:59;7.00;;;2.20;;
18142;SDS011;9197;50.930;3.140;2022-12-28T07:51:27;5.03;;;1.90;;
18142;SDS011;9197;50.930;3.140;2022-12-28T07:53:57;5.77;;;2.63;;
18142;SDS011;9197;50.930;3.140;2022-12-28T07:56:24;3.17;;;1.93;;
18142;SDS011;9197;50.930;3.140;2022-12-28T07:58:53;7.10;;;2.13;;
18142;SDS011;9197;50.930;3.140;2022-12-28T08:01:21;6.50;;;1.70;;
18142;SDS011;9197;50.930;3.140;2022-12-28T08:03:51;5.23;;;2.13;;
18142;SDS011;9197;50.930;3.140;2022-12-28T08:06:18;4.07;;;1.83;;
18142;SDS011;9197;50.930;3.140;2022-12-28T08:08:48;5.57;;;2.00;;
18142;SDS011;9197;50.930;3.140;2022-12-28T08:11:17;4.20;;;1.70;;
18142;SDS011;9197;50.930;3.140;2022-12-28T08:13:46;8.17;;;1.87;;
18142;SDS011;9197;50.930;3.140;2022-12-28T08:16:14;5.13;;;2.33;;
18142;SDS011;9197;50.930;3.140;2022-12-28T08:18:42;6.73;;;2.50;;
18142;SDS011;9197;50.930;3.140;2022-12-28T08:21:10;4.90;;;2.07;;
18142;SDS011;9197;50.930;3.140;2022-12-28T08:23:38;5.27;;;2.43;;
18142;SDS011;9197;50.930;3.140;2022-12-28T08:26:08;5.40;;;2.13;;
18142;SDS011;9197;50.930;3.140;2022-12-28T08:28:37;7.10;;;2.10;;
18142;SDS011;9197;50.930;3.140;2022-12-28T08:31:05;11.43;;;2.63;;
18142;SDS011;9197;50.930;3.140;2022-12-28T08:33:33;6.07;;;2.90;;
18142;SDS011;9197;50.930;3.140;2022-12-28T08:36:00;8.53;;;3.13;;
18142;SDS011;9197;50.930;3.140;2022-12-28T08:38:27;8.07;;;3.17;;
18142;SDS011;9197;50.930;3.140;2022-12-28T08:40:55;3.87;;;2.80;;
18142;SDS011;9197;50.930;3.140;2022-12-28T08:43:22;6.43;;;3.33;;
18142;SDS011;9197;50.930;3.140;2022-12-28T08:45:56;7.40;;;2.80;;
18142;SDS011;9197;50.930;3.140;2022-12-28T08:48:24;5.50;;;3.00;;
18142;SDS011;9197;50.930;3.140;2022-12-28T08:50:51;9.37;;;3.27;;
18142;SDS011;9197;50.930;3.140;2022-12-28T08:53:18;6.40;;;2.60;;
18142;SDS011;9197;50.930;3.140;2022-12-28T08:55:48;8.90;;;3.30;;
18142;SDS011;9197;50.930;3.140;2022-12-28T08:58:15;10.23;;;3.17;;
18142;SDS011;9197;50.930;3.140;2022-12-28T09:00:42;6.30;;;2.53;;
18142;SDS011;9197;50.930;3.140;2022-12-28T09:03:11;6.13;;;3.20;;
18142;SDS011;9197;50.930;3.140;2022-12-28T09:05:38;7.00;;;2.80;;
18142;SDS011;9197;50.930;3.140;2022-12-28T09:08:05;9.77;;;3.13;;
18142;SDS011;9197;50.930;3.140;2022-12-28T09:10:33;8.87;;;3.30;;
18142;SDS011;9197;50.930;3.140;2022-12-28T09:13:00;6.53;;;4.07;;
18142;SDS011;9197;50.930;3.140;2022-12-28T09:15:27;7.90;;;3.30;;
18142;SDS011;9197;50.930;3.140;2022-12-28T09:17:54;9.63;;;2.90;;
18142;SDS011;9197;50.930;3.140;2022-12-28T09:20:23;6.67;;;3.77;;
18142;SDS011;9197;50.930;3.140;2022-12-28T09:22:50;8.80;;;3.57;;
18142;SDS011;9197;50.930;3.140;2022-12-28T09:25:17;9.47;;;4.03;;
18142;SDS011;9197;50.930;3.140;2022-12-28T09:27:46;9.90;;;3.70;;
18142;SDS011;9197;50.930;3.140;2022-12-28T09:30:13;8.47;;;3.13;;
18142;SDS011;9197;50.930;3.140;2022-12-28T09:32:41;8.47;;;3.27;;
18142;SDS011;9197;50.930;3.140;2022-12-28T09:35:08;5.10;;;2.83;;
18142;SDS011;9197;50.930;3.140;2022-12-28T09:37:36;9.87;;;3.47;;
18142;SDS011;9197;50.930;3.140;2022-12-28T09:40:05;6.93;;;3.10;;
18142;SDS011;9197;50.930;3.140;2022-12-28T09:42:32;11.87;;;4.87;;
18142;SDS011;9197;50.930;3.140;2022-12-28T09:45:02;10.80;;;3.37;;
18142;SDS011;9197;50.930;3.140;2022-12-28T09:47:32;6.10;;;3.30;;
18142;SDS011;9197;50.930;3.140;2022-12-28T09:50:05;9.60;;;3.60;;
18142;SDS011;9197;50.930;3.140;2022-12-28T09:52:34;9.60;;;3.30;;
18142;SDS011;9197;50.930;3.140;2022-12-28T09:55:09;10.77;;;4.37;;
18142;SDS011;9197;50.930;3.140;2022-12-28T09:57:38;8.37;;;4.53;;
18142;SDS011;9197;50.930;3.140;2022-12-28T10:00:06;5.80;;;3.30;;
18142;SDS011;9197;50.930;3.140;2022-12-28T10:02:34;9.83;;;4.30;;
18142;SDS011;9197;50.930;3.140;2022-12-28T10:05:03;7.20;;;3.53;;
18142;SDS011;9197;50.930;3.140;2022-12-28T10:07:30;10.67;;;4.53;;
18142;SDS011;9197;50.930;3.140;2022-12-28T10:09:58;8.03;;;4.03;;
18142;SDS011;9197;50.930;3.140;2022-12-28T10:12:27;8.90;;;4.83;;
18142;SDS011;9197;50.930;3.140;2022-12-28T10:14:55;6.70;;;3.80;;
18142;SDS011;9197;50.930;3.140;2022-12-28T10:17:24;8.43;;;3.70;;
18142;SDS011;9197;50.930;3.140;2022-12-28T10:19:55;7.83;;;4.30;;
18142;SDS011;9197;50.930;3.140;2022-12-28T10:22:23;11.97;;;3.70;;
18142;SDS011;9197;50.930;3.140;2022-12-28T10:24:51;14.93;;;5.70;;
18142;SDS011;9197;50.930;3.140;2022-12-28T10:27:19;6.83;;;3.33;;
18142;SDS011;9197;50.930;3.140;2022-12-28T10:29:48;8.63;;;3.67;;
18142;SDS011;9197;50.930;3.140;2022-12-28T10:32:16;12.00;;;5.00;;
18142;SDS011;9197;50.930;3.140;2022-12-28T10:34:52;12.57;;;4.37;;
18142;SDS011;9197;50.930;3.140;2022-12-28T10:37:19;6.30;;;4.10;;
18142;SDS011;9197;50.930;3.140;2022-12-28T10:39:47;10.27;;;4.03;;
18142;SDS011;9197;50.930;3.140;2022-12-28T10:42:18;11.07;;;4.20;;
18142;SDS011;9197;50.930;3.140;2022-12-28T10:44:47;10.87;;;4.27;;
18142;SDS011;9197;50.930;3.140;2022-12-28T10:47:16;9.03;;;3.87;;
18142;SDS011;9197;50.930;3.140;2022-12-28T10:49:51;6.90;;;4.30;;
18142;SDS011;9197;50.930;3.140;2022-12-28T10:52:18;13.90;;;3.57;;
18142;SDS011;9197;50.930;3.140;2022-12-28T10:54:46;10.80;;;3.63;;
18142;SDS011;9197;50.930;3.140;2022-12-28T10:57:15;12.10;;;4.57;;
18142;SDS011;9197;50.930;3.140;2022-12-28T10:59:42;9.20;;;3.50;;
18142;SDS011;9197;50.930;3.140;2022-12-28T11:02:24;7.33;;;3.27;;
18142;SDS011;9197;50.930;3.140;2022-12-28T11:04:53;12.07;;;4.10;;
18142;SDS011;9197;50.930;3.140;2022-12-28T11:07:30;10.40;;;3.20;;
18142;SDS011;9197;50.930;3.140;2022-12-28T11:10:14;9.30;;;3.83;;
18142;SDS011;9197;50.930;3.140;2022-12-28T11:12:42;6.33;;;2.83;;
18142;SDS011;9197;50.930;3.140;2022-12-28T11:15:12;6.23;;;2.67;;
18142;SDS011;9197;50.930;3.140;2022-12-28T11:17:41;5.03;;;2.60;;
18142;SDS011;9197;50.930;3.140;2022-12-28T11:20:12;7.73;;;3.10;;
18142;SDS011;9197;50.930;3.140;2022-12-28T11:22:42;8.37;;;3.00;;
18142;SDS011;9197;50.930;3.140;2022-12-28T11:25:10;9.40;;;3.60;;
18142;SDS011;9197;50.930;3.140;2022-12-28T11:27:37;9.57;;;3.53;;
18142;SDS011;9197;50.930;3.140;2022-12-28T11:30:05;9.43;;;4.13;;
18142;SDS011;9197;50.930;3.140;2022-12-28T11:32:34;7.57;;;2.97;;
18142;SDS011;9197;50.930;3.140;2022-12-28T11:35:05;11.13;;;2.60;;
18142;SDS011;9197;50.930;3.140;2022-12-28T11:37:32;9.63;;;2.67;;
18142;SDS011;9197;50.930;3.140;2022-12-28T11:39:59;9.63;;;2.47;;
18142;SDS011;9197;50.930;3.140;2022-12-28T11:45:13;5.27;;;1.97;;
18142;SDS011;9197;50.930;3.140;2022-12-28T11:47:40;14.43;;;5.17;;
18142;SDS011;9197;50.930;3.140;2022-12-28T11:52:56;7.77;;;2.50;;
18142;SDS011;9197;50.930;3.140;2022-12-28T11:55:43;5.87;;;1.80;;
18142;SDS011;9197;50.930;3.140;2022-12-28T12:00:58;4.93;;;2.60;;
18142;SDS011;9197;50.930;3.140;2022-12-28T12:06:09;5.67;;;1.90;;
18142;SDS011;9197;50.930;3.140;2022-12-28T12:08:39;4.73;;;1.80;;
18142;SDS011;9197;50.930;3.140;2022-12-28T12:11:20;9.70;;;2.27;;
18142;SDS011;9197;50.930;3.140;2022-12-28T12:13:53;8.20;;;2.07;;
18142;SDS011;9197;50.930;3.140;2022-12-28T12:16:22;4.83;;;1.87;;
18142;SDS011;9197;50.930;3.140;2022-12-28T12:18:51;4.57;;;2.00;;
18142;SDS011;9197;50.930;3.140;2022-12-28T12:21:20;9.83;;;2.40;;
18142;SDS011;9197;50.930;3.140;2022-12-28T12:23:51;3.83;;;1.63;;
18142;SDS011;9197;50.930;3.140;2022-12-28T12:26:22;4.57;;;1.60;;
18142;SDS011;9197;50.930;3.140;2022-12-28T12:28:52;3.57;;;1.77;;
18142;SDS011;9197;50.930;3.140;2022-12-28T12:31:22;9.83;;;2.70;;
18142;SDS011;9197;50.930;3.140;2022-12-28T12:33:50;7.00;;;1.97;;
18142;SDS011;9197;50.930;3.140;2022-12-28T12:36:23;8.33;;;1.97;;
18142;SDS011;9197;50.930;3.140;2022-12-28T12:39:00;5.20;;;1.70;;
18142;SDS011;9197;50.930;3.140;2022-12-28T12:41:30;6.73;;;1.83;;
18142;SDS011;9197;50.930;3.140;2022-12-28T12:44:14;6.47;;;1.97;;
18142;SDS011;9197;50.930;3.140;2022-12-28T12:46:48;3.10;;;1.90;;
18142;SDS011;9197;50.930;3.140;2022-12-28T12:49:30;7.50;;;1.60;;
18142;SDS011;9197;50.930;3.140;2022-12-28T12:52:03;7.03;;;1.87;;
18142;SDS011;9197;50.930;3.140;2022-12-28T12:54:38;3.33;;;1.87;;
18142;SDS011;9197;50.930;3.140;2022-12-28T12:57:12;9.90;;;2.20;;
18142;SDS011;9197;50.930;3.140;2022-12-28T12:59:48;9.17;;;2.13;;
18142;SDS011;9197;50.930;3.140;2022-12-28T13:05:00;7.17;;;3.60;;
18142;SDS011;9197;50.930;3.140;2022-12-28T13:07:28;4.93;;;2.30;;
18142;SDS011;9197;50.930;3.140;2022-12-28T13:09:57;9.37;;;2.30;;
18142;SDS011;9197;50.930;3.140;2022-12-28T13:12:25;5.43;;;2.57;;
18142;SDS011;9197;50.930;3.140;2022-12-28T13:14:54;7.50;;;2.23;;
18142;SDS011;9197;50.930;3.140;2022-12-28T13:17:23;6.37;;;1.70;;
18142;SDS011;9197;50.930;3.140;2022-12-28T13:19:50;7.30;;;2.00;;
18142;SDS011;9197;50.930;3.140;2022-12-28T13:22:32;4.10;;;1.70;;
18142;SDS011;9197;50.930;3.140;2022-12-28T13:25:01;4.80;;;1.70;;
18142;SDS011;9197;50.930;3.140;2022-12-28T13:27:30;3.83;;;1.30;;
18142;SDS011;9197;50.930;3.140;2022-12-28T13:29:59;6.20;;;1.40;;
18142;SDS011;9197;50.930;3.140;2022-12-28T13:32:27;3.10;;;1.73;;
18142;SDS011;9197;50.930;3.140;2022-12-28T13:34:55;4.57;;;1.60;;
18142;SDS011;9197;50.930;3.140;2022-12-28T13:37:22;5.50;;;1.87;;
18142;SDS011;9197;50.930;3.140;2022-12-28T13:39:50;5.60;;;1.80;;
18142;SDS011;9197;50.930;3.140;2022-12-28T13:42:36;9.27;;;3.10;;
18142;SDS011;9197;50.930;3.140;2022-12-28T13:45:08;11.17;;;4.10;;
18142;SDS011;9197;50.930;3.140;2022-12-28T13:47:37;4.70;;;2.63;;
18142;SDS011;9197;50.930;3.140;2022-12-28T13:50:05;9.00;;;4.53;;
18142;SDS011;9197;50.930;3.140;2022-12-28T13:52:34;9.73;;;2.83;;
18142;SDS011;9197;50.930;3.140;2022-12-28T13:55:04;8.13;;;2.20;;
18142;SDS011;9197;50.930;3.140;2022-12-28T13:57:32;6.50;;;2.43;;
18142;SDS011;9197;50.930;3.140;2022-12-28T14:00:02;4.23;;;2.43;;
18142;SDS011;9197;50.930;3.140;2022-12-28T14:02:30;4.37;;;1.93;;
18142;SDS011;9197;50.930;3.140;2022-12-28T14:04:58;7.17;;;2.60;;
18142;SDS011;9197;50.930;3.140;2022-12-28T14:07:27;5.40;;;2.40;;
18142;SDS011;9197;50.930;3.140;2022-12-28T14:09:55;5.37;;;2.47;;
18142;SDS011;9197;50.930;3.140;2022-12-28T14:12:22;4.70;;;2.30;;
18142;SDS011;9197;50.930;3.140;2022-12-28T14:14:50;6.63;;;2.50;;
18142;SDS011;9197;50.930;3.140;2022-12-28T14:17:19;7.90;;;4.27;;
18142;SDS011;9197;50.930;3.140;2022-12-28T14:19:46;6.80;;;2.83;;
18142;SDS011;9197;50.930;3.140;2022-12-28T14:22:23;4.60;;;2.93;;
18142;SDS011;9197;50.930;3.140;2022-12-28T14:24:58;6.53;;;2.80;;
18142;SDS011;9197;50.930;3.140;2022-12-28T14:27:25;6.30;;;3.03;;
18142;SDS011;9197;50.930;3.140;2022-12-28T14:29:52;4.87;;;3.00;;
18142;SDS011;9197;50.930;3.140;2022-12-28T14:32:22;10.67;;;4.03;;
18142;SDS011;9197;50.930;3.140;2022-12-28T14:34:54;5.57;;;3.40;;
18142;SDS011;9197;50.930;3.140;2022-12-28T14:37:22;10.20;;;2.90;;
18142;SDS011;9197;50.930;3.140;2022-12-28T14:39:50;5.80;;;3.20;;
18142;SDS011;9197;50.930;3.140;2022-12-28T14:42:18;8.73;;;3.57;;
18142;SDS011;9197;50.930;3.140;2022-12-28T14:44:45;4.63;;;2.50;;
18142;SDS011;9197;50.930;3.140;2022-12-28T14:47:32;8.07;;;2.90;;
18142;SDS011;9197;50.930;3.140;2022-12-28T14:50:01;6.90;;;2.67;;
18142;SDS011;9197;50.930;3.140;2022-12-28T14:52:31;8.07;;;2.83;;
18142;SDS011;9197;50.930;3.140;2022-12-28T14:55:03;5.47;;;2.80;;
18142;SDS011;9197;50.930;3.140;2022-12-28T14:57:32;4.40;;;2.23;;
18142;SDS011;9197;50.930;3.140;2022-12-28T15:00:00;5.40;;;2.70;;
18142;SDS011;9197;50.930;3.140;2022-12-28T15:02:39;4.00;;;2.57;;
18142;SDS011;9197;50.930;3.140;2022-12-28T15:07:53;8.90;;;2.70;;
18142;SDS011;9197;50.930;3.140;2022-12-28T15:10:20;2.63;;;2.43;;
18142;SDS011;9197;50.930;3.140;2022-12-28T15:12:47;8.27;;;3.30;;
18142;SDS011;9197;50.930;3.140;2022-12-28T15:15:14;5.93;;;2.73;;
18142;SDS011;9197;50.930;3.140;2022-12-28T15:17:43;3.40;;;3.07;;
18142;SDS011;9197;50.930;3.140;2022-12-28T15:20:10;5.17;;;3.03;;
18142;SDS011;9197;50.930;3.140;2022-12-28T15:22:38;8.17;;;3.53;;
18142;SDS011;9197;50.930;3.140;2022-12-28T15:25:05;3.07;;;2.80;;
18142;SDS011;9197;50.930;3.140;2022-12-28T15:27:34;3.97;;;3.00;;
18142;SDS011;9197;50.930;3.140;2022-12-28T15:30:03;3.50;;;2.63;;
18142;SDS011;9197;50.930;3.140;2022-12-28T15:32:30;8.80;;;2.83;;
18142;SDS011;9197;50.930;3.140;2022-12-28T15:34:59;7.70;;;2.93;;